createdAt,value
2019-04-21T00:01:47.450Z,101902.55
2019-04-21T00:04:24.547Z,101910.38
2019-04-21T00:07:08.701Z,101905.39
2019-04-21T00:09:50.249Z,101894.47
2019-04-21T00:12:13.992Z,101900.06
2019-04-21T00:14:39.763Z,101899.27
2019-04-21T00:17:07.793Z,101903.05
2019-04-21T00:19:45.841Z,101903.27
2019-04-21T00:22:33.150Z,101900.55
2019-04-21T00:25:08.970Z,101894.87
2019-04-21T00:27:38.635Z,101905.27
2019-04-21T00:30:17.324Z,101904.16
2019-04-21T00:32:41.856Z,101904.53
2019-04-21T00:35:10.061Z,101898.84
2019-04-21T00:38:13.154Z,101893.99
2019-04-21T00:40:36.554Z,101887.46
2019-04-21T00:43:03.724Z,101884.34
2019-04-21T00:45:31.592Z,101890.84
2019-04-21T00:48:11.370Z,101887.19
2019-04-21T00:51:03.427Z,101890.58
2019-04-21T00:53:33.433Z,101881.75
2019-04-21T00:56:05.770Z,101882.47
2019-04-21T00:58:33.176Z,101874.23
2019-04-21T01:01:05.532Z,101875.86
2019-04-21T01:03:40.170Z,101875.42
2019-04-21T01:06:16.481Z,101871.77
2019-04-21T01:08:51.807Z,101875.19
2019-04-21T01:11:17.852Z,101868.20
2019-04-21T01:14:01.040Z,101864.23
2019-04-21T01:16:37.496Z,101865.55
2019-04-21T01:19:03.592Z,101861.83
2019-04-21T01:21:14.412Z,101864.77
2019-04-21T01:23:46.539Z,101865.59
2019-04-21T01:26:30.729Z,101865.95
2019-04-21T01:29:06.970Z,101859.38
2019-04-21T01:31:41.914Z,101861.47
2019-04-21T01:34:15.041Z,101858.97
2019-04-21T01:36:47.482Z,101860.61
2019-04-21T01:39:27.429Z,101854.10
2019-04-21T01:42:04.945Z,101856.30
2019-04-21T01:44:36.094Z,101849.98
2019-04-21T01:47:02.859Z,101844.68
2019-04-21T01:49:29.578Z,101841.00
2019-04-21T01:55:06.502Z,101834.36
2019-04-21T01:57:58.939Z,101834.71
2019-04-21T02:00:46.953Z,101837.27
2019-04-21T02:03:41.671Z,101838.97
2019-04-21T02:06:02.731Z,101843.20
2019-04-21T02:08:28.769Z,101830.12
2019-04-21T02:11:07.581Z,101836.91
2019-04-21T02:13:35.184Z,101828.95
2019-04-21T02:16:11.392Z,101833.91
2019-04-21T02:18:39.006Z,101828.16
2019-04-21T02:21:04.449Z,101827.62
2019-04-21T02:23:57.462Z,101831.47
2019-04-21T02:26:23.125Z,101830.09
2019-04-21T02:31:41.826Z,101825.22
2019-04-21T02:34:04.555Z,101825.63
2019-04-21T02:36:58.620Z,101827.22
2019-04-21T02:41:57.937Z,101820.22
2019-04-21T02:46:46.399Z,101812.52
2019-04-21T02:54:47.722Z,101810.66
2019-04-21T02:59:55.831Z,101810.04
2019-04-21T03:02:36.726Z,101803.90
2019-04-21T03:05:29.650Z,101809.03
2019-04-21T03:10:41.484Z,101800.20
2019-04-21T03:13:06.036Z,101793.05
2019-04-21T03:15:37.364Z,101793.60
2019-04-21T03:20:49.104Z,101785.13
2019-04-21T03:25:52.129Z,101786.67
2019-04-21T03:28:29.813Z,101781.88
2019-04-21T03:31:25.456Z,101775.63
2019-04-21T03:38:42.991Z,101773.13
2019-04-21T03:41:10.626Z,101773.35
2019-04-21T03:46:25.686Z,101776.05
2019-04-21T03:48:51.750Z,101772.97
2019-04-21T03:54:00.258Z,101775.13
2019-04-21T04:02:15.886Z,101771.30
2019-04-21T04:05:08.817Z,101776.83
2019-04-21T04:08:22.766Z,101776.30
2019-04-21T04:10:44.576Z,101776.77
2019-04-21T04:13:04.621Z,101774.58
2019-04-21T04:18:17.742Z,101769.72
2019-04-21T04:21:06.090Z,101773.53
2019-04-21T04:23:41.459Z,101770.20
2019-04-21T04:25:49.431Z,101767.02
2019-04-21T04:28:28.823Z,101773.44
2019-04-21T04:31:08.215Z,101762.33
2019-04-21T04:36:10.802Z,101768.82
2019-04-21T04:38:54.450Z,101767.22
2019-04-21T04:41:43.706Z,101768.66
2019-04-21T04:44:13.682Z,101766.42
2019-04-21T04:46:52.821Z,101767.16
2019-04-21T04:49:23.708Z,101757.86
2019-04-21T04:54:31.662Z,101757.00
2019-04-21T04:56:58.960Z,101759.70
2019-04-21T05:02:11.609Z,101766.75
2019-04-21T05:05:03.135Z,101759.00
2019-04-21T05:07:11.853Z,101763.13
2019-04-21T05:12:08.962Z,101752.42
2019-04-21T05:14:48.278Z,101759.08
2019-04-21T05:22:21.953Z,101738.73
2019-04-21T05:24:49.391Z,101744.45
2019-04-21T05:27:51.677Z,101741.14
2019-04-21T05:30:58.384Z,101742.61
2019-04-21T05:33:44.821Z,101743.48
2019-04-21T05:36:52.121Z,101744.12
2019-04-21T05:39:40.974Z,101737.38
2019-04-21T05:42:07.223Z,101738.86
2019-04-21T05:47:26.292Z,101731.45
2019-04-21T05:50:06.508Z,101737.16
2019-04-21T05:52:50.360Z,101738.45
2019-04-21T05:55:36.103Z,101738.11
2019-04-21T05:58:02.725Z,101730.86
2019-04-21T06:00:59.518Z,101730.92
2019-04-21T06:03:30.692Z,101731.08
2019-04-21T06:05:58.447Z,101731.32
2019-04-21T06:08:21.649Z,101733.41
2019-04-21T06:10:55.609Z,101729.78
2019-04-21T06:13:41.001Z,101725.94
2019-04-21T06:16:03.215Z,101727.41
2019-04-21T06:18:42.276Z,101726.20
2019-04-21T06:23:40.203Z,101720.05
2019-04-21T06:26:26.959Z,101725.73
2019-04-21T06:28:50.270Z,101727.92
2019-04-21T06:31:33.910Z,101722.80
2019-04-21T06:33:57.418Z,101725.29
2019-04-21T06:36:47.473Z,101723.77
2019-04-21T06:39:11.986Z,101724.31
2019-04-21T06:41:38.026Z,101723.97
2019-04-21T06:44:12.884Z,101726.20
2019-04-21T06:47:00.350Z,101732.06
2019-04-21T06:49:13.345Z,101720.48
2019-04-21T06:51:49.781Z,101726.32
2019-04-21T06:54:27.676Z,101719.09
2019-04-21T06:56:58.618Z,101723.19
2019-04-21T06:59:29.300Z,101716.74
2019-04-21T07:02:24.839Z,101723.14
2019-04-21T07:07:12.336Z,101715.97
2019-04-21T07:09:42.723Z,101715.63
2019-04-21T07:12:13.714Z,101713.91
2019-04-21T07:14:53.330Z,101706.53
2019-04-21T07:20:01.865Z,101716.63
2019-04-21T07:22:31.906Z,101707.45
2019-04-21T07:25:10.551Z,101706.12
2019-04-21T07:27:41.520Z,101706.12
2019-04-21T07:30:17.705Z,101707.90
2019-04-21T07:32:55.380Z,101703.46
2019-04-21T07:35:21.754Z,101702.56
2019-04-21T07:37:53.441Z,101702.53
2019-04-21T07:40:22.284Z,101698.55
2019-04-21T07:42:51.439Z,101697.09
2019-04-21T07:45:26.557Z,101697.92
2019-04-21T07:48:11.303Z,101694.30
2019-04-21T07:50:57.692Z,101692.83
2019-04-21T07:53:48.198Z,101693.64
2019-04-21T07:55:51.273Z,101691.31
2019-04-21T07:58:47.535Z,101688.09
2019-04-21T08:01:18.046Z,101687.06
2019-04-21T08:03:46.120Z,101689.42
2019-04-21T08:06:26.826Z,101689.34
2019-04-21T08:08:52.976Z,101696.70
2019-04-21T08:11:25.412Z,101687.80
2019-04-21T08:14:01.155Z,101687.20
2019-04-21T08:16:37.251Z,101691.42
2019-04-21T08:19:09.616Z,101683.98
2019-04-21T08:21:43.040Z,101679.78
2019-04-21T08:24:17.245Z,101679.04
2019-04-21T08:26:54.013Z,101679.24
2019-04-21T08:32:03.114Z,101674.28
2019-04-21T08:37:02.295Z,101668.89
2019-04-21T08:39:43.025Z,101677.31
2019-04-21T08:42:03.322Z,101677.36
2019-04-21T08:44:46.698Z,101679.84
2019-04-21T08:47:18.396Z,101670.20
2019-04-21T08:49:47.517Z,101675.19
2019-04-21T08:52:42.516Z,101674.95
2019-04-21T08:55:03.353Z,101671.33
2019-04-21T08:58:14.161Z,101660.25
2019-04-21T09:00:55.064Z,101656.21
2019-04-21T09:03:51.961Z,101656.58
2019-04-21T09:06:27.360Z,101654.22
2019-04-21T09:08:55.446Z,101654.44
2019-04-21T09:11:22.632Z,101642.69
2019-04-21T09:13:58.511Z,101643.19
2019-04-21T09:16:27.901Z,101642.12
2019-04-21T09:18:57.097Z,101637.36
2019-04-21T09:21:39.507Z,101630.94
2019-04-21T09:24:13.391Z,101626.30
2019-04-21T09:26:42.882Z,101625.61
2019-04-21T09:29:13.089Z,101626.11
2019-04-21T09:31:39.159Z,101625.09
2019-04-21T09:34:08.376Z,101614.46
2019-04-21T09:36:46.445Z,101613.92
2019-04-21T09:39:18.861Z,101605.31
2019-04-21T09:41:51.746Z,101596.36
2019-04-21T09:44:27.537Z,101594.03
2019-04-21T09:46:57.933Z,101591.34
2019-04-21T09:49:31.320Z,101582.86
2019-04-21T09:52:02.087Z,101588.98
2019-04-21T09:54:45.233Z,101580.91
2019-04-21T09:57:15.234Z,101572.58
2019-04-21T09:59:47.531Z,101581.40
2019-04-21T10:02:20.037Z,101578.45
2019-04-21T10:04:46.789Z,101578.48
2019-04-21T10:07:26.488Z,101575.17
2019-04-21T10:09:52.286Z,101569.30
2019-04-21T10:12:23.772Z,101573.04
2019-04-21T10:14:55.367Z,101558.52
2019-04-21T10:17:35.015Z,101560.02
2019-04-21T10:20:09.501Z,101557.59
2019-04-21T10:22:41.685Z,101557.56
2019-04-21T10:25:14.529Z,101558.19
2019-04-21T10:27:47.261Z,101550.59
2019-04-21T10:30:20.388Z,101542.08
2019-04-21T10:32:52.457Z,101542.08
2019-04-21T10:35:25.041Z,101529.27
2019-04-21T10:38:10.473Z,101534.55
2019-04-21T10:40:32.588Z,101526.25
2019-04-21T10:43:03.990Z,101519.08
2019-04-21T10:45:36.883Z,101512.53
2019-04-21T10:48:08.164Z,101512.34
2019-04-21T10:50:39.489Z,101505.27
2019-04-21T10:53:16.588Z,101509.30
2019-04-21T10:56:00.368Z,101499.45
2019-04-21T10:58:24.941Z,101500.36
2019-04-21T11:01:23.046Z,101499.58
2019-04-21T11:04:17.250Z,101502.34
2019-04-21T11:06:44.401Z,101494.63
2019-04-21T11:09:15.979Z,101491.65
2019-04-21T11:11:50.324Z,101485.84
2019-04-21T11:14:23.200Z,101480.47
2019-04-21T11:16:56.504Z,101467.47
2019-04-21T11:19:28.637Z,101463.87
2019-04-21T11:22:01.042Z,101460.02
2019-04-21T11:24:33.248Z,101462.52
2019-04-21T11:27:06.717Z,101462.97
2019-04-21T11:29:39.246Z,101456.14
2019-04-21T11:32:10.938Z,101450.97
2019-04-21T11:34:43.145Z,101449.03
2019-04-21T11:37:16.626Z,101449.06
2019-04-21T11:39:55.072Z,101436.23
2019-04-21T11:42:30.720Z,101441.17
2019-04-21T11:45:03.859Z,101434.03
2019-04-21T11:47:40.671Z,101428.42
2019-04-21T11:50:13.101Z,101427.88
2019-04-21T11:52:47.328Z,101414.89
2019-04-21T11:55:20.581Z,101416.27
2019-04-21T11:57:54.538Z,101420.59
2019-04-21T12:00:25.764Z,101418.24
2019-04-21T12:02:57.925Z,101411.84
2019-04-21T12:05:30.746Z,101411.84
2019-04-21T12:08:02.149Z,101400.64
2019-04-21T12:10:35.573Z,101399.23
2019-04-21T12:13:08.366Z,101404.80
2019-04-21T12:15:40.922Z,101392.78
2019-04-21T12:18:12.636Z,101385.20
2019-04-21T12:20:45.147Z,101381.89
2019-04-21T12:23:16.721Z,101384.97
2019-04-21T12:25:51.385Z,101379.69
2019-04-21T12:28:23.880Z,101384.70
2019-04-21T12:30:56.074Z,101372.50
2019-04-21T12:33:45.825Z,101365.91
2019-04-21T12:36:17.903Z,101364.31
2019-04-21T12:38:55.563Z,101359.98
2019-04-21T12:41:22.576Z,101353.16
2019-04-21T12:43:54.956Z,101346.16
2019-04-21T12:46:27.687Z,101345.85
2019-04-21T12:48:59.950Z,101337.92
2019-04-21T12:51:31.414Z,101330.23
2019-04-21T12:54:03.800Z,101333.22
2019-04-21T12:56:35.937Z,101323.05
2019-04-21T12:59:07.990Z,101328.02
2019-04-21T13:01:41.063Z,101327.32
2019-04-21T13:04:13.494Z,101324.66
2019-04-21T13:06:45.786Z,101319.72
2019-04-21T13:09:20.326Z,101315.88
2019-04-21T13:11:51.023Z,101307.03
2019-04-21T13:14:22.387Z,101303.59
2019-04-21T13:16:55.133Z,101299.89
2019-04-21T13:19:27.333Z,101296.56
2019-04-21T13:22:00.193Z,101290.33
2019-04-21T13:24:33.676Z,101289.64
2019-04-21T13:27:07.002Z,101290.80
2019-04-21T13:29:39.518Z,101291.67
2019-04-21T13:32:12.454Z,101290.77
2019-04-21T13:34:44.392Z,101282.99
2019-04-21T13:37:17.334Z,101278.20
2019-04-21T13:40:38.845Z,101279.27
2019-04-21T13:42:53.193Z,101276.31
2019-04-21T13:45:21.891Z,101270.95
2019-04-21T13:47:54.753Z,101273.65
2019-04-21T13:50:26.185Z,101265.83
2019-04-21T13:52:58.676Z,101265.75
2019-04-21T13:55:30.072Z,101262.52
2019-04-21T13:58:06.404Z,101250.31
2019-04-21T14:00:38.031Z,101245.20
2019-04-21T14:03:10.433Z,101248.91
2019-04-21T14:05:42.468Z,101240.56
2019-04-21T14:08:15.434Z,101240.17
2019-04-21T14:10:47.346Z,101244.32
2019-04-21T14:13:20.494Z,101239.78
2019-04-21T14:15:51.892Z,101238.62
2019-04-21T14:18:23.208Z,101237.09
2019-04-21T14:20:55.491Z,101228.52
2019-04-21T14:23:35.580Z,101226.95
2019-04-21T14:26:01.657Z,101219.80
2019-04-21T14:28:33.571Z,101224.30
2019-04-21T14:31:06.217Z,101221.50
2019-04-21T14:33:38.623Z,101220.50
2019-04-21T14:36:10.713Z,101209.13
2019-04-21T14:38:42.704Z,101202.98
2019-04-21T14:41:14.612Z,101205.25
2019-04-21T14:43:46.078Z,101202.27
2019-04-21T14:46:22.323Z,101202.45
2019-04-21T14:49:17.360Z,101202.22
2019-04-21T14:52:01.465Z,101194.94
2019-04-21T14:54:54.442Z,101190.14
2019-04-21T14:57:27.279Z,101195.41
2019-04-21T14:59:58.696Z,101192.30
2019-04-21T15:02:30.004Z,101189.58
2019-04-21T15:05:02.132Z,101193.93
2019-04-21T15:07:33.535Z,101186.28
2019-04-21T15:10:13.342Z,101185.00
2019-04-21T15:12:41.453Z,101187.84
2019-04-21T15:15:13.946Z,101181.58
2019-04-21T15:17:46.364Z,101182.37
2019-04-21T15:20:19.586Z,101180.02
2019-04-21T15:22:52.807Z,101175.47
2019-04-21T15:25:24.140Z,101170.38
2019-04-21T15:27:55.397Z,101163.85
2019-04-21T15:30:26.985Z,101165.45
2019-04-21T15:32:58.704Z,101169.29
2019-04-21T15:35:31.043Z,101161.30
2019-04-21T15:38:04.075Z,101155.64
2019-04-21T15:40:44.590Z,101149.81
2019-04-21T15:43:10.585Z,101154.52
2019-04-21T15:45:42.490Z,101145.09
2019-04-21T15:48:14.504Z,101144.09
2019-04-21T15:50:46.152Z,101140.78
2019-04-21T15:53:19.379Z,101141.52
2019-04-21T15:56:17.321Z,101137.81
2019-04-21T15:59:04.345Z,101126.39
2019-04-21T16:01:48.425Z,101129.19
2019-04-21T16:04:20.842Z,101130.93
2019-04-21T16:06:53.438Z,101120.97
2019-04-21T16:09:26.942Z,101109.56
2019-04-21T16:11:58.045Z,101110.78
2019-04-21T16:14:29.334Z,101106.99
2019-04-21T16:17:01.261Z,101106.20
2019-04-21T16:19:33.376Z,101106.79
2019-04-21T16:22:04.756Z,101110.38
2019-04-21T16:24:37.783Z,101106.74
2019-04-21T16:27:11.073Z,101107.03
2019-04-21T16:29:43.861Z,101101.58
2019-04-21T16:32:18.361Z,101100.73
2019-04-21T16:34:54.352Z,101099.66
2019-04-21T16:37:21.626Z,101093.16
2019-04-21T16:39:53.675Z,101089.72
2019-04-21T16:42:25.126Z,101092.75
2019-04-21T16:44:56.826Z,101083.55
2019-04-21T16:47:28.323Z,101091.90
2019-04-21T16:50:01.533Z,101084.14
2019-04-21T16:52:38.282Z,101083.85
2019-04-21T16:55:37.064Z,101079.72
2019-04-21T16:58:45.666Z,101074.98
2019-04-21T17:01:22.416Z,101076.05
2019-04-21T17:03:54.731Z,101075.16
2019-04-21T17:06:27.010Z,101072.13
2019-04-21T17:08:58.957Z,101069.82
2019-04-21T17:11:35.178Z,101070.15
2019-04-21T17:14:05.659Z,101068.96
2019-04-21T17:17:00.272Z,101067.58
2019-04-21T17:19:18.933Z,101059.59
2019-04-21T17:21:43.705Z,101066.33
2019-04-21T17:24:16.744Z,101063.47
2019-04-21T17:26:49.539Z,101063.27
2019-04-21T17:29:22.731Z,101062.80
2019-04-21T17:31:55.294Z,101055.59
2019-04-21T17:34:28.838Z,101055.98
2019-04-21T17:37:01.017Z,101062.21
2019-04-21T17:39:32.662Z,101064.30
2019-04-21T17:42:15.200Z,101064.36
2019-04-21T17:44:37.363Z,101060.93
2019-04-21T17:47:19.238Z,101057.09
2019-04-21T17:49:43.152Z,101053.20
2019-04-21T17:52:45.954Z,101059.42
2019-04-21T17:55:27.558Z,101063.45
2019-04-21T17:58:09.757Z,101058.50
2019-04-21T18:03:40.295Z,101054.83
2019-04-21T18:05:56.296Z,101053.66
2019-04-21T18:08:32.557Z,101056.94
2019-04-21T18:10:57.912Z,101061.25
2019-04-21T18:13:23.471Z,101057.91
2019-04-21T18:16:08.338Z,101062.22
2019-04-21T18:18:26.952Z,101063.23
2019-04-21T18:21:05.260Z,101057.77
2019-04-21T18:23:50.524Z,101057.48
2019-04-21T18:26:31.871Z,101057.10
2019-04-21T18:28:53.221Z,101065.34
2019-04-21T18:31:23.020Z,101069.66
2019-04-21T18:34:14.800Z,101069.66
2019-04-21T18:36:52.502Z,101061.78
2019-04-21T18:40:02.439Z,101060.61
2019-04-21T18:42:55.536Z,101060.55
2019-04-21T18:45:55.398Z,101064.53
2019-04-21T18:48:21.795Z,101062.94
2019-04-21T18:51:11.389Z,101065.61
2019-04-21T18:54:02.208Z,101059.29
2019-04-21T18:56:20.630Z,101066.35
2019-04-21T18:58:51.838Z,101074.10
2019-04-21T19:01:28.215Z,101069.88
2019-04-21T19:03:58.316Z,101076.78
2019-04-21T19:06:45.362Z,101074.69
2019-04-21T19:09:26.724Z,101080.30
2019-04-21T19:11:54.941Z,101082.66
2019-04-21T19:14:32.274Z,101078.61
2019-04-21T19:17:29.171Z,101083.57
2019-04-21T19:19:46.738Z,101087.34
2019-04-21T19:22:13.553Z,101079.68
2019-04-21T19:24:48.970Z,101081.44
2019-04-21T19:27:17.137Z,101082.52
2019-04-21T19:30:02.856Z,101079.72
2019-04-21T19:32:23.887Z,101076.87
2019-04-21T19:34:40.869Z,101077.55
2019-04-21T19:37:16.443Z,101077.50
2019-04-21T19:40:00.501Z,101077.80
2019-04-21T19:42:29.105Z,101076.93
2019-04-21T19:45:05.641Z,101074.58
2019-04-21T19:47:46.078Z,101073.55
2019-04-21T19:50:16.890Z,101075.28
2019-04-21T19:52:39.902Z,101074.06
2019-04-21T19:55:04.410Z,101067.41
2019-04-21T19:57:36.693Z,101067.09
2019-04-21T20:00:10.097Z,101071.19
2019-04-21T20:02:42.821Z,101069.14
2019-04-21T20:05:24.435Z,101072.98
2019-04-21T20:08:03.761Z,101074.48
2019-04-21T20:10:42.327Z,101067.36
2019-04-21T20:13:18.079Z,101064.89
2019-04-21T20:15:49.092Z,101068.94
2019-04-21T20:18:12.488Z,101060.81
2019-04-21T20:20:35.235Z,101061.32
2019-04-21T20:23:13.171Z,101057.36
2019-04-21T20:25:48.463Z,101062.11
2019-04-21T20:28:22.180Z,101063.02
2019-04-21T20:31:08.311Z,101063.91
2019-04-21T20:36:15.839Z,101067.50
2019-04-21T20:38:39.926Z,101061.04
2019-04-21T20:41:15.882Z,101064.27
2019-04-21T20:43:58.477Z,101066.11
2019-04-21T20:46:24.678Z,101073.59
2019-04-21T20:48:51.237Z,101068.08
2019-04-21T20:51:27.173Z,101068.94
2019-04-21T20:54:03.213Z,101064.20
2019-04-21T20:56:41.018Z,101066.28
2019-04-21T20:59:12.099Z,101061.12
2019-04-21T21:08:11.486Z,101063.64
2019-04-21T21:10:38.616Z,101064.41
2019-04-21T21:15:51.394Z,101061.39
2019-04-21T21:18:41.092Z,101056.50
2019-04-21T21:20:59.129Z,101060.50
2019-04-21T21:23:33.497Z,101056.52
2019-04-21T21:26:09.703Z,101062.25
2019-04-21T21:28:34.078Z,101055.81
2019-04-21T21:31:08.044Z,101054.20
2019-04-21T21:33:52.529Z,101054.19
2019-04-21T21:36:13.837Z,101057.76
2019-04-21T21:38:51.844Z,101059.89
2019-04-21T21:41:13.818Z,101061.16
2019-04-21T21:43:39.241Z,101056.88
2019-04-21T21:46:27.159Z,101056.00
2019-04-21T21:48:54.082Z,101055.77
2019-04-21T21:51:26.932Z,101052.26
2019-04-21T21:53:48.866Z,101046.52
2019-04-21T21:56:20.553Z,101046.72
2019-04-21T21:58:53.436Z,101044.72
2019-04-21T22:01:31.804Z,101039.93
2019-04-21T22:04:08.342Z,101048.41
2019-04-21T22:06:41.986Z,101042.59
2019-04-21T22:09:10.034Z,101047.25
2019-04-21T22:11:42.211Z,101044.83
2019-04-21T22:14:22.881Z,101044.86
2019-04-21T22:17:06.818Z,101039.17
2019-04-21T22:19:46.921Z,101044.91
2019-04-21T22:22:09.678Z,101051.11
2019-04-21T22:24:41.439Z,101053.84
2019-04-21T22:27:01.174Z,101048.13
2019-04-21T22:29:36.379Z,101048.13
2019-04-21T22:32:11.356Z,101046.05
2019-04-21T22:34:47.753Z,101040.94
2019-04-21T22:37:27.561Z,101043.50
2019-04-21T22:39:57.894Z,101042.77
2019-04-21T22:42:22.411Z,101039.21
2019-04-21T22:44:50.277Z,101038.42
2019-04-21T22:47:26.999Z,101036.77
2019-04-21T22:49:54.712Z,101035.02
2019-04-21T22:52:29.592Z,101033.72
2019-04-21T22:55:00.824Z,101034.16
2019-04-21T22:57:36.507Z,101033.67
2019-04-21T23:00:10.778Z,101031.91
2019-04-21T23:02:39.361Z,101032.87
2019-04-21T23:05:15.558Z,101030.30
2019-04-21T23:07:51.200Z,101043.01
2019-04-21T23:10:19.224Z,101031.99
2019-04-21T23:12:52.192Z,101034.66
2019-04-21T23:15:33.228Z,101037.28
2019-04-21T23:18:12.060Z,101027.30
2019-04-21T23:20:47.640Z,101039.08
2019-04-21T23:23:23.685Z,101029.47
2019-04-21T23:25:53.098Z,101020.30
2019-04-21T23:28:29.707Z,101036.94
2019-04-21T23:31:00.436Z,101030.39
2019-04-21T23:33:19.226Z,101033.52
2019-04-21T23:35:49.505Z,101031.83
2019-04-21T23:38:28.211Z,101033.56
2019-04-21T23:40:58.692Z,101029.25
2019-04-21T23:43:30.010Z,101028.81
2019-04-21T23:46:04.221Z,101027.05
2019-04-21T23:48:48.886Z,101031.86
2019-04-21T23:51:15.961Z,101029.27
2019-04-21T23:53:41.481Z,101029.27
2019-04-21T23:56:20.262Z,101029.73
2019-04-21T23:58:51.978Z,101036.28
